Time;durP1;ratioP1;P1;durP2;ratioP2;P2;SDS_P1;SDS_P2;PMS_P1;PMS_P2;Temp;Humidity;BMP_temperature;BMP_pressure;BME280_temperature;BME280_humidity;BME280_pressure;Samples;Min_cycle;Max_cycle;Signal;HPM_P1;HPM_P2
2021/12/05 00:19:33;;;;;;;6.05;3.30;;;4.70;99.90;;;;;;5094762;28;20429;-42
2021/12/05 00:22:11;;;;;;;9.15;3.72;;;4.70;99.90;;;;;;5093686;28;20047;-39
2021/12/05 00:24:41;;;;;;;9.23;4.90;;;4.70;99.90;;;;;;5094309;28;20028;-39
2021/12/05 00:27:16;;;;;;;8.50;4.00;;;4.70;99.90;;;;;;5077478;28;20033;-40
2021/12/05 00:29:55;;;;;;;6.85;3.20;;;4.80;99.90;;;;;;5073436;28;20039;-40
2021/12/05 00:41:02;;;;;;;6.93;3.88;;;4.70;99.90;;;;;;5050286;28;20043;-39
2021/12/05 00:49:16;;;;;;;5.13;2.97;;;4.70;99.90;;;;;;5093486;28;20123;-40
2021/12/05 00:57:44;;;;;;;7.30;3.28;;;4.60;99.90;;;;;;5093104;28;20043;-38
2021/12/05 01:11:02;;;;;;;5.72;3.33;;;4.70;99.90;;;;;;5072681;28;20497;-39
2021/12/05 01:13:34;;;;;;;6.93;2.67;;;4.70;99.90;;;;;;5073383;28;20107;-40
2021/12/05 01:16:04;;;;;;;8.45;3.17;;;4.70;99.90;;;;;;5073247;28;20028;-40
2021/12/05 01:18:30;;;;;;;6.13;2.95;;;4.80;99.90;;;;;;5072753;28;20154;-40
2021/12/05 01:20:59;;;;;;;6.43;3.38;;;4.80;99.90;;;;;;5073112;28;20096;-39
2021/12/05 01:26:06;;;;;;;5.88;2.85;;;4.80;99.90;;;;;;5085104;28;20398;-40
2021/12/05 01:31:36;;;;;;;5.15;2.80;;;4.90;99.90;;;;;;5092956;28;20081;-38
2021/12/05 01:39:27;;;;;;;4.00;2.60;;;4.80;99.90;;;;;;5092639;28;20032;-40
2021/12/05 01:56:45;;;;;;;5.65;3.13;;;4.90;99.90;;;;;;5030125;28;20103;-39
2021/12/05 01:59:29;;;;;;;8.85;2.35;;;4.90;99.90;;;;;;5072738;28;20113;-39
2021/12/05 02:37:08;;;;;;;7.60;3.00;;;5.00;99.90;;;;;;5094993;28;20666;-39
2021/12/05 02:42:09;;;;;;;10.98;4.30;;;5.00;99.90;;;;;;5095714;28;20068;-39
2021/12/05 02:44:36;;;;;;;9.15;4.45;;;5.00;99.90;;;;;;5096434;28;20111;-39
2021/12/05 02:47:12;;;;;;;8.30;4.47;;;5.00;99.90;;;;;;5096198;28;20100;-40
2021/12/05 02:49:42;;;;;;;11.85;4.80;;;5.00;99.90;;;;;;5095532;28;20463;-40
2021/12/05 02:52:12;;;;;;;11.43;5.90;;;5.00;99.90;;;;;;5096178;28;20012;-40
2021/12/05 02:54:46;;;;;;;13.43;4.68;;;5.00;99.90;;;;;;5086420;28;20119;-39
2021/12/05 02:57:12;;;;;;;8.13;4.75;;;5.00;99.90;;;;;;5074095;28;20035;-40
2021/12/05 02:59:45;;;;;;;11.18;4.88;;;4.90;99.90;;;;;;5074470;28;20020;-40
2021/12/05 03:02:14;;;;;;;9.57;4.95;;;5.00;99.90;;;;;;5074611;28;20078;-40
2021/12/05 03:04:44;;;;;;;10.80;5.05;;;4.90;99.90;;;;;;5073977;28;20029;-39
2021/12/05 03:07:13;;;;;;;13.68;6.38;;;4.90;99.90;;;;;;5074339;28;20052;-40
2021/12/05 03:09:40;;;;;;;17.15;5.65;;;5.00;99.90;;;;;;5073560;28;20051;-40
2021/12/05 03:12:10;;;;;;;13.55;5.82;;;4.90;99.90;;;;;;5074319;28;20021;-40
2021/12/05 03:14:36;;;;;;;13.60;6.72;;;5.00;99.90;;;;;;5074266;28;20103;-39
2021/12/05 03:17:01;;;;;;;12.93;6.40;;;5.00;99.90;;;;;;5073662;28;20109;-40
2021/12/05 03:19:27;;;;;;;19.88;7.20;;;5.00;99.90;;;;;;5074209;28;20521;-39
2021/12/05 03:21:53;;;;;;;20.45;6.82;;;5.00;99.90;;;;;;5074089;28;20524;-39
2021/12/05 03:24:20;;;;;;;14.93;6.97;;;5.00;99.90;;;;;;5077476;28;20528;-40
2021/12/05 03:26:49;;;;;;;11.90;5.90;;;5.00;99.90;;;;;;5074121;28;20020;-42
2021/12/05 03:29:17;;;;;;;16.02;6.22;;;5.00;99.90;;;;;;5074188;28;20111;-38
2021/12/05 03:31:43;;;;;;;13.48;6.80;;;5.00;99.90;;;;;;5073576;28;20479;-39
2021/12/05 03:34:11;;;;;;;17.58;6.68;;;5.00;99.90;;;;;;5074033;28;20012;-39
2021/12/05 03:36:40;;;;;;;14.95;6.20;;;5.00;99.90;;;;;;5074000;28;20020;-39
2021/12/05 03:39:06;;;;;;;;;;;5.00;99.90;;;;;;5073912;28;20017;-40
2021/12/05 03:41:32;;;;;;;9.75;5.35;;;4.90;99.90;;;;;;5073799;28;19912;-39
2021/12/05 03:43:58;;;;;;;16.27;5.63;;;4.90;99.90;;;;;;5073966;28;20032;-41
2021/12/05 03:46:25;;;;;;;12.10;5.80;;;4.90;99.90;;;;;;5073288;28;20029;-40
2021/12/05 03:48:57;;;;;;;9.73;5.72;;;4.90;99.90;;;;;;5073742;28;20078;-40
2021/12/05 03:51:25;;;;;;;16.60;6.43;;;4.90;99.90;;;;;;5073800;28;20012;-40
2021/12/05 03:53:51;;;;;;;16.95;6.40;;;4.90;99.90;;;;;;5073102;28;20041;-39
2021/12/05 03:56:17;;;;;;;10.75;4.70;;;4.90;99.90;;;;;;5037962;28;1034148;-39
2021/12/05 03:58:44;;;;;;;12.13;5.68;;;4.80;99.90;;;;;;5074034;28;20499;-39
2021/12/05 04:01:11;;;;;;;16.05;6.18;;;4.80;99.90;;;;;;5074444;28;20421;-39
2021/12/05 04:03:38;;;;;;;14.23;5.80;;;4.80;99.90;;;;;;5078457;28;20016;-39
2021/12/05 04:06:05;;;;;;;10.65;5.43;;;4.80;99.90;;;;;;5094191;28;20451;-41
2021/12/05 04:08:31;;;;;;;10.02;5.13;;;4.80;99.90;;;;;;5094534;28;20016;-40
2021/12/05 04:11:04;;;;;;;13.65;6.50;;;4.80;99.90;;;;;;5094568;28;20043;-40
2021/12/05 04:13:31;;;;;;;17.60;5.70;;;4.80;99.90;;;;;;5094017;28;20028;-39
2021/12/05 04:16:00;;;;;;;15.00;5.78;;;4.80;99.90;;;;;;5094438;28;20020;-41
2021/12/05 04:18:25;;;;;;;;;;;4.80;99.90;;;;;;5095008;28;20102;-39
2021/12/05 04:20:52;;;;;;;11.77;4.85;;;4.80;99.90;;;;;;5093796;28;20034;-39
2021/12/05 04:23:18;;;;;;;19.33;5.35;;;4.80;99.90;;;;;;5089579;28;20123;-40
2021/12/05 04:25:47;;;;;;;10.18;5.53;;;4.70;99.90;;;;;;5074056;28;20020;-39
2021/12/05 04:28:13;;;;;;;6.50;4.45;;;4.80;99.90;;;;;;5073473;28;20028;-39
2021/12/05 04:30:39;;;;;;;13.95;4.60;;;4.70;99.90;;;;;;5073876;28;20031;-39
2021/12/05 04:33:05;;;;;;;8.35;4.57;;;4.80;99.90;;;;;;5073946;28;20024;-40
2021/12/05 04:35:30;;;;;;;9.23;4.35;;;4.80;99.90;;;;;;5073395;28;20043;-39
2021/12/05 04:37:56;;;;;;;10.77;5.38;;;4.70;99.90;;;;;;5073746;28;20020;-41
2021/12/05 04:40:22;;;;;;;10.13;4.47;;;4.70;99.90;;;;;;5073810;28;20024;-39
2021/12/05 04:42:48;;;;;;;9.20;4.68;;;4.70;99.90;;;;;;5074446;28;20410;-41
2021/12/05 04:45:19;;;;;;;8.30;4.05;;;4.70;99.90;;;;;;5094133;28;20020;-41
2021/12/05 04:47:45;;;;;;;8.43;4.57;;;4.60;99.90;;;;;;5093952;28;20031;-39
2021/12/05 04:50:12;;;;;;;9.82;3.72;;;4.60;99.90;;;;;;5093396;28;20107;-40
2021/12/05 04:52:38;;;;;;;9.35;4.53;;;4.60;99.90;;;;;;5093325;28;20032;-40
2021/12/05 04:55:06;;;;;;;16.25;4.13;;;4.60;99.90;;;;;;5093023;28;20390;-41
2021/12/05 04:57:32;;;;;;;17.13;4.32;;;4.50;99.90;;;;;;5093801;28;20068;-40
2021/12/05 04:59:58;;;;;;;6.57;3.40;;;4.60;99.90;;;;;;5093646;28;20036;-40
2021/12/05 05:02:24;;;;;;;6.35;3.70;;;4.50;99.90;;;;;;5092298;28;20032;-39
2021/12/05 05:04:50;;;;;;;7.55;3.63;;;4.50;99.90;;;;;;5073288;28;20375;-39
2021/12/05 05:07:25;;;;;;;8.07;3.90;;;4.50;99.90;;;;;;5089821;28;20043;-41
2021/12/05 05:09:54;;;;;;;11.43;3.97;;;4.50;99.90;;;;;;5093007;28;20032;-39
2021/12/05 05:12:20;;;;;;;8.68;4.43;;;4.50;99.90;;;;;;5093559;28;20032;-41
2021/12/05 05:14:47;;;;;;;6.03;3.55;;;4.50;99.90;;;;;;5093446;28;20020;-39
2021/12/05 05:17:13;;;;;;;8.20;3.40;;;4.50;99.90;;;;;;5092898;28;20020;-40
2021/12/05 05:19:44;;;;;;;7.25;3.65;;;4.40;99.90;;;;;;5075159;28;20111;-40
2021/12/05 05:22:30;;;;;;;14.82;3.90;;;4.50;99.90;;;;;;5093379;28;20036;-41
2021/12/05 05:28:40;;;;;;;10.40;3.78;;;4.40;99.90;;;;;;5037933;28;20084;-39
2021/12/05 05:52:02;;;;;;;5.93;3.28;;;4.20;99.90;;;;;;5072400;28;20032;-42
2021/12/05 05:54:28;;;;;;;16.35;4.28;;;4.20;99.90;;;;;;5091653;28;20093;-40
2021/12/05 05:57:00;;;;;;;8.63;4.03;;;4.10;99.90;;;;;;5092901;28;20394;-39
2021/12/05 05:59:32;;;;;;;11.43;3.83;;;4.10;99.90;;;;;;5092461;28;20391;-39
2021/12/05 06:04:36;;;;;;;8.80;3.22;;;4.10;99.90;;;;;;5093085;28;20040;-41
2021/12/05 06:07:01;;;;;;;15.05;4.32;;;4.10;99.90;;;;;;5092266;28;20118;-39
2021/12/05 06:09:27;;;;;;;11.10;3.58;;;4.10;99.90;;;;;;5092848;28;20021;-39
2021/12/05 06:11:52;;;;;;;11.32;4.15;;;4.10;99.90;;;;;;5092232;28;20013;-39
2021/12/05 06:14:18;;;;;;;10.15;4.10;;;4.10;99.90;;;;;;5072165;28;20155;-40
2021/12/05 06:16:44;;;;;;;10.02;3.70;;;4.10;99.90;;;;;;5072405;28;20487;-39
2021/12/05 06:19:09;;;;;;;6.70;3.40;;;4.10;99.90;;;;;;5072602;28;20459;-39
2021/12/05 06:21:35;;;;;;;10.50;2.92;;;4.00;99.90;;;;;;5071846;28;20025;-38
2021/12/05 06:24:01;;;;;;;11.13;4.35;;;4.00;99.90;;;;;;5072427;28;20103;-39
2021/12/05 06:26:26;;;;;;;14.63;3.50;;;4.00;99.90;;;;;;5072034;28;20027;-39
2021/12/05 06:29:14;;;;;;;9.90;3.40;;;4.00;99.90;;;;;;5072369;28;20092;-39
2021/12/05 06:32:03;;;;;;;16.50;3.72;;;4.00;99.90;;;;;;5072924;28;20020;-40
2021/12/05 06:37:30;;;;;;;11.57;4.68;;;4.00;99.90;;;;;;5071517;28;20040;-41
2021/12/05 06:42:52;;;;;;;8.40;4.25;;;4.10;99.90;;;;;;5071353;28;20051;-39
2021/12/05 06:48:03;;;;;;;7.72;3.72;;;4.10;99.90;;;;;;5074728;28;20047;-39
2021/12/05 06:50:28;;;;;;;7.82;3.80;;;4.10;99.90;;;;;;5075353;28;20020;-39
2021/12/05 06:52:54;;;;;;;13.73;3.97;;;4.10;99.90;;;;;;5075553;28;20029;-39
2021/12/05 06:55:19;;;;;;;9.73;3.28;;;4.20;99.90;;;;;;5074202;28;20076;-40
2021/12/05 06:57:45;;;;;;;21.10;3.60;;;4.20;99.90;;;;;;5075108;28;20060;-42
2021/12/05 07:00:19;;;;;;;9.13;4.00;;;4.20;99.90;;;;;;5074950;28;20021;-40
2021/12/05 07:02:45;;;;;;;14.75;3.60;;;4.20;99.90;;;;;;5074394;28;20040;-39
2021/12/05 07:07:41;;;;;;;8.20;3.58;;;4.20;99.90;;;;;;5074942;28;20094;-40
2021/12/05 07:10:08;;;;;;;9.50;3.53;;;4.30;99.90;;;;;;5074187;28;20024;-39
2021/12/05 07:15:47;;;;;;;6.03;3.42;;;4.30;99.90;;;;;;5032284;28;20067;-41
2021/12/05 07:21:27;;;;;;;16.13;4.40;;;4.30;99.90;;;;;;5074837;28;20064;-41
2021/12/05 07:26:32;;;;;;;14.85;4.30;;;4.40;99.90;;;;;;5074382;28;20056;-39
2021/12/05 07:42:41;;;;;;;14.73;4.50;;;4.50;99.90;;;;;;5094561;28;20043;-41
2021/12/05 07:45:10;;;;;;;12.93;4.38;;;4.60;99.90;;;;;;5073662;28;20033;-40
2021/12/05 07:47:39;;;;;;;8.55;3.80;;;4.60;99.90;;;;;;5074382;28;20013;-41
2021/12/05 07:50:08;;;;;;;;;;;4.60;99.90;;;;;;5074288;28;20032;-39
2021/12/05 07:52:38;;;;;;;9.75;4.00;;;4.60;99.90;;;;;;5073627;28;19919;-40
2021/12/05 07:55:16;;;;;;;10.40;3.88;;;4.60;99.90;;;;;;5073441;28;20518;-41
2021/12/05 07:58:03;;;;;;;11.18;4.43;;;4.70;99.90;;;;;;5073008;28;20043;-39
2021/12/05 08:17:03;;;;;;;8.82;4.18;;;4.90;99.90;;;;;;5094171;28;20074;-40
2021/12/05 08:19:29;;;;;;;14.75;5.65;;;4.90;99.90;;;;;;5082945;28;20031;-40
2021/12/05 08:21:55;;;;;;;16.05;5.78;;;4.90;99.90;;;;;;5073330;28;20028;-41
2021/12/05 08:24:28;;;;;;;14.60;4.95;;;5.00;99.90;;;;;;5073365;28;20032;-40
2021/12/05 08:26:54;;;;;;;7.72;3.45;;;5.00;99.90;;;;;;5072809;28;20511;-39
2021/12/05 08:29:30;;;;;;;10.77;5.38;;;5.00;99.90;;;;;;5073263;28;20032;-39
2021/12/05 08:32:12;;;;;;;10.90;5.03;;;5.00;99.90;;;;;;5085530;28;20111;-41
2021/12/05 08:39:57;;;;;;;11.30;4.32;;;5.00;99.90;;;;;;5093497;28;20506;-39
2021/12/05 09:27:03;;;;;;;14.57;5.65;;;5.40;99.90;;;;;;5072802;28;20042;-40
2021/12/05 09:40:33;;;;;;;18.88;5.68;;;5.40;99.90;;;;;;5092459;28;20062;-41
2021/12/05 09:51:53;;;;;;;15.68;4.47;;;5.40;99.90;;;;;;5091773;28;20031;-39
2021/12/05 10:02:39;;;;;;;12.23;4.03;;;5.50;99.90;;;;;;5089350;28;20055;-40
2021/12/05 10:14:14;;;;;;;138.45;45.00;;;5.70;99.90;;;;;;5008834;28;20044;-40
2021/12/05 10:20:28;;;;;;;11.30;4.90;;;5.80;99.90;;;;;;5071016;28;20033;-40
2021/12/05 10:38:49;;;;;;;8.73;3.58;;;6.00;99.90;;;;;;5077903;28;20352;-41
2021/12/05 10:43:54;;;;;;;10.57;3.85;;;6.10;99.90;;;;;;5075757;28;20040;-40
2021/12/05 10:46:23;;;;;;;7.93;3.70;;;6.10;99.90;;;;;;5082319;28;20094;-40
2021/12/05 10:48:58;;;;;;;9.80;3.50;;;6.20;99.90;;;;;;5080509;28;20151;-40
2021/12/05 10:51:27;;;;;;;6.82;3.85;;;6.20;99.90;;;;;;5074864;28;20059;-42
2021/12/05 10:53:58;;;;;;;7.57;3.45;;;6.30;99.90;;;;;;5074560;28;20020;-40
2021/12/05 10:56:35;;;;;;;8.93;3.75;;;6.30;99.90;;;;;;5074490;28;20036;-40
2021/12/05 10:59:09;;;;;;;8.50;3.23;;;6.40;99.90;;;;;;5090332;28;20059;-40
2021/12/05 11:01:51;;;;;;;5.63;3.65;;;6.40;99.90;;;;;;5094586;28;20898;-40
2021/12/05 11:04:29;;;;;;;6.32;3.15;;;6.40;99.90;;;;;;5094811;28;20089;-40
2021/12/05 11:07:00;;;;;;;8.63;3.55;;;6.30;99.90;;;;;;5095224;28;20024;-41
2021/12/05 11:09:32;;;;;;;8.95;3.20;;;6.30;99.90;;;;;;5075235;28;20029;-39
2021/12/05 11:12:23;;;;;;;12.30;4.25;;;6.30;99.90;;;;;;5074908;28;20029;-40
2021/12/05 11:15:00;;;;;;;6.53;3.03;;;6.30;99.90;;;;;;5074430;28;20023;-39
2021/12/05 11:17:29;;;;;;;7.72;3.67;;;6.30;99.90;;;;;;5075645;28;20033;-39
2021/12/05 11:20:02;;;;;;;8.50;3.53;;;6.20;99.90;;;;;;5074729;28;20452;-40
2021/12/05 11:22:34;;;;;;;9.27;4.10;;;6.20;99.90;;;;;;5073857;28;20074;-40
2021/12/05 11:25:04;;;;;;;7.97;3.30;;;6.30;99.90;;;;;;5074563;28;20491;-41
2021/12/05 11:27:36;;;;;;;6.75;3.72;;;6.20;99.90;;;;;;5076278;28;20029;-41
2021/12/05 11:30:16;;;;;;;8.70;3.30;;;6.20;99.90;;;;;;5094201;28;20395;-41
2021/12/05 11:32:58;;;;;;;9.10;3.92;;;6.20;99.90;;;;;;5094542;28;20358;-39
2021/12/05 11:35:37;;;;;;;6.57;3.38;;;6.20;99.90;;;;;;5094311;28;20105;-41
2021/12/05 11:38:17;;;;;;;8.98;3.58;;;6.20;99.90;;;;;;5086639;28;20025;-41
2021/12/05 11:40:55;;;;;;;3.90;2.65;;;6.30;99.90;;;;;;5074442;28;20035;-40
2021/12/05 11:43:23;;;;;;;5.03;2.88;;;6.30;99.90;;;;;;5073350;28;20040;-41
2021/12/05 11:46:07;;;;;;;8.60;3.80;;;6.30;99.90;;;;;;5093704;28;20039;-40
2021/12/05 11:48:55;;;;;;;6.38;2.78;;;6.40;99.90;;;;;;5083363;28;20028;-40
2021/12/05 11:51:35;;;;;;;;;;;6.40;99.90;;;;;;5073888;28;20036;-41
2021/12/05 11:54:08;;;;;;;8.23;3.13;;;6.40;99.90;;;;;;5073876;28;20351;-44
2021/12/05 11:56:33;;;;;;;11.50;4.03;;;6.40;99.90;;;;;;5073659;28;20139;-41
2021/12/05 11:59:19;;;;;;;9.32;2.72;;;6.40;99.90;;;;;;5086438;28;20102;-41
2021/12/05 12:02:20;;;;;;;7.20;3.47;;;6.50;99.90;;;;;;5094123;28;20138;-41
2021/12/05 12:04:56;;;;;;;8.35;3.03;;;6.50;99.90;;;;;;5037699;28;20040;-40
2021/12/05 12:07:30;;;;;;;8.80;3.30;;;6.50;99.90;;;;;;5093698;28;20022;-41
2021/12/05 12:10:00;;;;;;;6.90;3.35;;;6.60;99.90;;;;;;5087432;28;20402;-40
2021/12/05 12:12:26;;;;;;;11.98;3.70;;;6.60;99.90;;;;;;5073082;28;20391;-40
2021/12/05 12:14:52;;;;;;;5.88;3.33;;;6.60;99.90;;;;;;5085379;28;20020;-41
2021/12/05 12:17:19;;;;;;;8.52;3.60;;;6.60;99.90;;;;;;5093457;28;20024;-40
2021/12/05 12:19:48;;;;;;;7.50;2.67;;;6.60;99.90;;;;;;5093342;28;20031;-40
2021/12/05 12:22:16;;;;;;;;;;;6.60;99.90;;;;;;5093883;28;20024;-42
2021/12/05 12:24:42;;;;;;;8.63;2.78;;;6.60;99.90;;;;;;5075180;28;19912;-41
2021/12/05 12:27:09;;;;;;;9.00;4.00;;;6.60;99.90;;;;;;5092985;28;20103;-44
2021/12/05 12:29:36;;;;;;;7.03;3.42;;;6.60;99.90;;;;;;5093404;28;20025;-40
2021/12/05 12:32:11;;;;;;;7.53;3.30;;;6.70;99.90;;;;;;5093190;28;20023;-39
2021/12/05 12:34:37;;;;;;;7.32;3.35;;;6.70;99.90;;;;;;5094057;28;20032;-41
2021/12/05 12:37:05;;;;;;;6.05;3.45;;;6.70;99.90;;;;;;5093017;28;20064;-41
2021/12/05 12:39:36;;;;;;;4.57;2.90;;;6.70;99.90;;;;;;5091908;28;20020;-40
2021/12/05 12:42:12;;;;;;;4.68;2.75;;;6.60;99.90;;;;;;5092908;28;20038;-40
2021/12/05 12:44:57;;;;;;;11.27;3.50;;;6.60;99.90;;;;;;5091936;28;20153;-40
2021/12/05 12:47:30;;;;;;;9.13;3.10;;;6.60;99.90;;;;;;5092586;28;20031;-41
2021/12/05 12:49:55;;;;;;;6.50;3.17;;;6.60;99.90;;;;;;5093384;28;20090;-42
2021/12/05 12:52:21;;;;;;;4.07;2.47;;;6.60;99.90;;;;;;5091165;28;20031;-39
2021/12/05 12:54:55;;;;;;;6.80;3.90;;;6.60;99.90;;;;;;5072056;28;20037;-40
2021/12/05 12:57:31;;;;;;;7.78;2.80;;;6.60;99.90;;;;;;5072513;28;20578;-41
2021/12/05 13:00:05;;;;;;;4.35;2.53;;;6.60;99.90;;;;;;5073160;28;20033;-41
2021/12/05 13:05:23;;;;;;;4.18;2.45;;;6.60;99.90;;;;;;5072312;28;20368;-41
2021/12/05 13:10:45;;;;;;;3.70;2.47;;;6.70;99.90;;;;;;5072867;28;20079;-40
2021/12/05 13:13:15;;;;;;;6.23;2.83;;;6.80;99.90;;;;;;5075594;28;20115;-41
2021/12/05 13:15:49;;;;;;;7.35;2.60;;;6.80;99.90;;;;;;5081390;28;20020;-40
2021/12/05 13:18:15;;;;;;;6.75;3.00;;;6.80;99.90;;;;;;5081950;28;20024;-40
2021/12/05 13:20:40;;;;;;;6.00;3.03;;;6.90;99.90;;;;;;5092606;28;20020;-40
2021/12/05 13:23:21;;;;;;;6.35;3.05;;;6.90;99.90;;;;;;5091917;28;20036;-41
2021/12/05 13:26:04;;;;;;;4.75;2.90;;;6.90;99.90;;;;;;5091537;28;20584;-40
2021/12/05 13:28:30;;;;;;;3.70;2.47;;;6.90;99.90;;;;;;5092172;28;20466;-40
2021/12/05 13:30:56;;;;;;;5.10;2.10;;;7.00;99.90;;;;;;5087515;28;20027;-41
2021/12/05 13:33:25;;;;;;;6.05;2.53;;;7.00;99.90;;;;;;5083103;28;20062;-41
2021/12/05 13:35:57;;;;;;;5.15;2.35;;;7.10;99.90;;;;;;5071570;28;20031;-41
2021/12/05 13:38:31;;;;;;;4.97;2.85;;;7.10;99.90;;;;;;5088628;28;20501;-42
2021/12/05 13:41:14;;;;;;;4.60;2.78;;;7.20;99.90;;;;;;5092466;28;20077;-40
2021/12/05 13:43:41;;;;;;;12.60;3.05;;;7.30;99.90;;;;;;5091647;28;20040;-40
2021/12/05 13:46:38;;;;;;;5.35;2.97;;;7.30;99.90;;;;;;5092070;28;20020;-42
2021/12/05 13:49:33;;;;;;;4.43;2.30;;;7.20;99.90;;;;;;5087687;28;20020;-41
2021/12/05 13:52:36;;;;;;;7.13;3.03;;;7.20;99.90;;;;;;5089093;28;20347;-41
2021/12/05 13:55:30;;;;;;;3.70;2.55;;;7.20;99.90;;;;;;5093903;28;20375;-41
2021/12/05 13:58:27;;;;;;;6.20;3.08;;;7.30;99.90;;;;;;5096130;28;20024;-42
2021/12/05 14:01:00;;;;;;;6.18;2.40;;;7.50;99.90;;;;;;5089342;28;20039;-42
2021/12/05 14:04:08;;;;;;;3.15;2.13;;;7.60;99.90;;;;;;5083664;28;20073;-42
2021/12/05 14:06:53;;;;;;;4.45;2.13;;;7.60;99.90;;;;;;5082141;28;20076;-44
2021/12/05 14:09:32;;;;;;;3.78;2.15;;;7.50;99.90;;;;;;5096366;28;20086;-41
2021/12/05 14:12:19;;;;;;;2.85;2.05;;;7.40;99.90;;;;;;5082193;28;20032;-41
2021/12/05 14:15:00;;;;;;;10.23;2.65;;;7.30;99.90;;;;;;5081986;28;20463;-43
2021/12/05 14:17:29;;;;;;;3.42;2.05;;;7.30;99.90;;;;;;5079485;28;20035;-41
2021/12/05 14:19:59;;;;;;;6.95;2.78;;;7.20;99.90;;;;;;5093700;28;20034;-42
2021/12/05 14:22:29;;;;;;;4.20;2.67;;;7.20;99.90;;;;;;5090361;28;20029;-40
2021/12/05 14:24:56;;;;;;;3.28;2.25;;;7.10;99.90;;;;;;5075233;28;20028;-41
2021/12/05 14:27:26;;;;;;;3.95;2.55;;;7.10;99.90;;;;;;5075390;28;20158;-41
2021/12/05 14:29:52;;;;;;;3.83;2.60;;;7.00;99.90;;;;;;5079371;28;20016;-40
2021/12/05 14:32:36;;;;;;;4.10;2.78;;;6.90;99.90;;;;;;5085941;28;20020;-42
2021/12/05 14:35:15;;;;;;;3.08;2.13;;;6.80;99.90;;;;;;5095359;28;20474;-41
2021/12/05 14:37:43;;;;;;;3.67;2.33;;;6.80;99.90;;;;;;5095750;28;20020;-42
2021/12/05 14:40:10;;;;;;;3.00;1.80;;;6.70;99.90;;;;;;5094712;28;20020;-42
2021/12/05 14:42:39;;;;;;;3.83;2.40;;;6.70;99.90;;;;;;5095790;28;20027;-43
2021/12/05 14:45:12;;;;;;;;;;;6.70;99.90;;;;;;5095826;28;20023;-42
2021/12/05 14:47:41;;;;;;;4.50;2.45;;;6.60;99.90;;;;;;5099004;28;19910;-42
2021/12/05 14:50:12;;;;;;;3.58;2.35;;;6.50;99.90;;;;;;5115744;28;20510;-41
2021/12/05 14:52:41;;;;;;;5.80;2.90;;;6.50;99.90;;;;;;5115936;28;20038;-41
2021/12/05 14:55:10;;;;;;;4.00;2.35;;;6.40;99.90;;;;;;5115083;28;20122;-42
2021/12/05 14:57:51;;;;;;;7.68;2.45;;;6.40;99.90;;;;;;5115769;28;20015;-43
2021/12/05 15:00:24;;;;;;;5.07;2.28;;;6.30;99.90;;;;;;5115116;28;20030;-42
2021/12/05 15:03:13;;;;;;;5.72;2.35;;;6.30;99.90;;;;;;5115609;28;20043;-44
2021/12/05 15:05:41;;;;;;;5.53;2.35;;;6.30;99.90;;;;;;5097106;28;20365;-41
2021/12/05 15:08:13;;;;;;;7.77;2.53;;;6.20;99.90;;;;;;5114917;28;20397;-46
2021/12/05 15:10:43;;;;;;;7.72;3.17;;;6.20;99.90;;;;;;5115723;28;20280;-42
2021/12/05 15:13:10;;;;;;;6.75;3.33;;;6.20;99.90;;;;;;5098671;28;20456;-42
2021/12/05 15:15:36;;;;;;;5.28;3.28;;;6.10;99.90;;;;;;5086358;28;20604;-42
2021/12/05 15:18:03;;;;;;;5.55;3.15;;;6.10;99.90;;;;;;5074547;28;20016;-43
2021/12/05 15:20:33;;;;;;;5.40;3.25;;;6.10;99.90;;;;;;5081449;28;20016;-41
2021/12/05 15:23:08;;;;;;;6.72;3.35;;;6.10;99.90;;;;;;5094228;28;20032;-42
2021/12/05 15:25:36;;;;;;;5.78;3.15;;;6.10;99.90;;;;;;5095002;28;20055;-42
2021/12/05 15:28:02;;;;;;;6.13;3.63;;;6.00;99.90;;;;;;5094155;28;20020;-43
2021/12/05 15:30:32;;;;;;;8.80;3.08;;;6.00;99.90;;;;;;5094743;28;20026;-43
2021/12/05 15:33:10;;;;;;;6.18;3.50;;;6.00;99.90;;;;;;5085093;28;20074;-42
2021/12/05 15:35:37;;;;;;;8.63;3.42;;;6.10;99.90;;;;;;5074112;28;20024;-41
2021/12/05 15:38:12;;;;;;;7.80;4.18;;;6.00;99.90;;;;;;5074187;28;20028;-42
2021/12/05 15:40:42;;;;;;;8.55;3.80;;;6.00;99.90;;;;;;5074561;28;20104;-42
2021/12/05 15:43:13;;;;;;;10.48;4.25;;;6.00;99.90;;;;;;5073524;28;20047;-43
2021/12/05 15:45:41;;;;;;;10.75;4.55;;;6.00;99.90;;;;;;5074193;28;20025;-42
2021/12/05 15:48:07;;;;;;;12.35;4.85;;;6.10;99.90;;;;;;5074040;28;20029;-42
2021/12/05 15:50:37;;;;;;;8.05;4.30;;;6.00;99.90;;;;;;5073855;28;20028;-43
2021/12/05 15:53:06;;;;;;;6.70;3.90;;;6.00;99.90;;;;;;5074161;28;20029;-44
2021/12/05 15:55:36;;;;;;;10.82;3.80;;;6.00;99.90;;;;;;5073979;28;20095;-42
2021/12/05 15:58:12;;;;;;;8.25;4.50;;;6.00;99.90;;;;;;5073240;28;20024;-42
2021/12/05 16:00:48;;;;;;;11.13;5.18;;;6.00;99.90;;;;;;5074260;28;20025;-41
2021/12/05 16:03:20;;;;;;;10.98;4.80;;;6.00;99.90;;;;;;5073075;28;20487;-43
2021/12/05 16:05:53;;;;;;;12.07;4.55;;;6.00;99.90;;;;;;5074113;28;20021;-41
2021/12/05 16:08:19;;;;;;;9.88;4.40;;;6.00;99.90;;;;;;5073615;28;20108;-43
2021/12/05 16:10:50;;;;;;;8.15;4.50;;;6.00;99.90;;;;;;5093268;28;20104;-42
2021/12/05 16:13:20;;;;;;;9.65;4.53;;;6.00;99.90;;;;;;5093172;28;20032;-42
2021/12/05 16:15:49;;;;;;;10.18;4.97;;;6.00;99.90;;;;;;5091622;28;20039;-42
2021/12/05 16:18:16;;;;;;;7.72;4.50;;;6.00;99.90;;;;;;5092089;28;20016;-42
2021/12/05 16:20:45;;;;;;;10.93;4.82;;;5.90;99.90;;;;;;5093084;28;20124;-43
2021/12/05 16:23:24;;;;;;;11.05;4.65;;;5.90;99.90;;;;;;5091877;28;20043;-42
2021/12/05 16:26:13;;;;;;;9.98;4.85;;;5.90;99.90;;;;;;5093200;28;20039;-41
2021/12/05 16:28:45;;;;;;;10.93;4.45;;;5.90;99.90;;;;;;5093857;28;20028;-42
2021/12/05 16:31:17;;;;;;;8.40;4.30;;;5.90;99.90;;;;;;5086215;28;20032;-43
2021/12/05 16:34:00;;;;;;;13.40;5.15;;;5.90;99.90;;;;;;5070124;28;20025;-42
2021/12/05 16:36:31;;;;;;;11.02;4.55;;;5.90;99.90;;;;;;5073457;28;20052;-41
2021/12/05 16:39:06;;;;;;;12.02;4.88;;;5.90;99.90;;;;;;5072765;28;20021;-41
2021/12/05 16:41:33;;;;;;;10.13;4.47;;;5.80;99.90;;;;;;5072741;28;20036;-43
2021/12/05 16:44:09;;;;;;;12.65;5.25;;;5.80;99.90;;;;;;5073272;28;20025;-44
2021/12/05 16:46:38;;;;;;;11.55;5.43;;;5.80;99.90;;;;;;5072829;28;20021;-44
2021/12/05 16:49:07;;;;;;;14.27;4.88;;;5.80;99.90;;;;;;5073503;28;20020;-43
2021/12/05 16:51:43;;;;;;;12.73;5.15;;;5.80;99.90;;;;;;5093154;28;20028;-42
2021/12/05 16:54:19;;;;;;;13.48;5.88;;;5.80;99.90;;;;;;5092383;28;20076;-44
2021/12/05 16:56:59;;;;;;;13.98;5.78;;;5.80;99.90;;;;;;5075162;28;20044;-43
2021/12/05 16:59:30;;;;;;;9.77;5.63;;;5.80;99.90;;;;;;5075830;28;20077;-42
2021/12/05 17:02:08;;;;;;;12.18;5.55;;;5.80;99.90;;;;;;5092974;28;20508;-41
2021/12/05 17:04:48;;;;;;;11.75;5.75;;;5.80;99.90;;;;;;5093015;28;20412;-43
2021/12/05 17:07:17;;;;;;;11.70;6.28;;;5.80;99.90;;;;;;5091130;28;20107;-44
2021/12/05 17:09:43;;;;;;;12.65;5.68;;;5.80;99.90;;;;;;5090290;28;20045;-42
2021/12/05 17:12:31;;;;;;;12.80;6.43;;;5.80;99.90;;;;;;5082317;28;20024;-44
2021/12/05 17:15:16;;;;;;;15.73;6.18;;;5.80;99.90;;;;;;5092138;28;20031;-42
2021/12/05 17:17:45;;;;;;;14.90;5.97;;;5.70;99.90;;;;;;5072797;28;20029;-42
2021/12/05 17:20:24;;;;;;;13.02;6.68;;;5.70;99.90;;;;;;5072330;28;20031;-43
2021/12/05 17:22:57;;;;;;;10.65;5.70;;;5.80;99.90;;;;;;5072291;28;20102;-42
2021/12/05 17:25:44;;;;;;;19.45;7.38;;;5.70;99.90;;;;;;5071820;28;20028;-43
2021/12/05 17:28:44;;;;;;;15.73;6.43;;;5.70;99.90;;;;;;5077532;28;20097;-42
2021/12/05 17:31:15;;;;;;;16.98;7.40;;;5.70;99.90;;;;;;5088700;28;20027;-42
2021/12/05 17:33:45;;;;;;;14.27;6.65;;;5.70;99.90;;;;;;5092432;28;20039;-45
2021/12/05 17:36:15;;;;;;;12.63;6.90;;;5.70;99.90;;;;;;5091781;28;20051;-45
2021/12/05 17:38:41;;;;;;;14.18;5.97;;;5.70;99.90;;;;;;5092799;28;20024;-43
2021/12/05 17:41:07;;;;;;;16.30;7.72;;;5.70;99.90;;;;;;5091891;28;20016;-43
2021/12/05 17:43:33;;;;;;;20.15;8.07;;;5.70;99.90;;;;;;5091758;28;20521;-43
2021/12/05 17:45:58;;;;;;;17.63;8.23;;;5.70;99.90;;;;;;5092349;28;20368;-43
2021/12/05 17:48:24;;;;;;;19.33;9.07;;;5.70;99.90;;;;;;5087039;28;20028;-43
2021/12/05 17:50:53;;;;;;;17.50;8.10;;;5.70;99.90;;;;;;5091919;28;20024;-43
2021/12/05 17:53:20;;;;;;;20.40;8.15;;;5.70;99.90;;;;;;5092057;28;20107;-42
2021/12/05 17:55:48;;;;;;;18.80;7.70;;;5.70;99.90;;;;;;5090928;28;20098;-43
2021/12/05 17:58:39;;;;;;;28.00;9.20;;;5.70;99.90;;;;;;5092100;28;20024;-42
2021/12/05 18:03:51;;;;;;;19.88;9.23;;;5.70;99.90;;;;;;5091857;28;20073;-44
2021/12/05 18:06:20;;;;;;;21.35;9.55;;;5.70;99.90;;;;;;5072710;28;20029;-43
2021/12/05 18:08:47;;;;;;;20.25;8.80;;;5.70;99.90;;;;;;5072062;28;20103;-42
2021/12/05 18:11:19;;;;;;;22.25;9.57;;;5.70;99.90;;;;;;5071253;28;20027;-43
2021/12/05 18:13:50;;;;;;;25.80;9.80;;;5.70;99.90;;;;;;5072284;28;20021;-43
2021/12/05 18:16:23;;;;;;;20.15;9.68;;;5.70;99.90;;;;;;5072691;28;20028;-43
2021/12/05 18:18:48;;;;;;;33.95;9.48;;;5.70;99.90;;;;;;5071661;28;20032;-44
2021/12/05 18:21:14;;;;;;;19.08;8.55;;;5.70;99.90;;;;;;5071707;28;20020;-43
2021/12/05 18:23:40;;;;;;;21.08;8.90;;;5.70;99.90;;;;;;5071833;28;20406;-42